Time;durP1;ratioP1;P1;durP2;ratioP2;P2;SDS_P1;SDS_P2;PMS_P1;PMS_P2;Temp;Humidity;BMP_temperature;BMP_pressure;BME280_temperature;BME280_humidity;BME280_pressure;Samples;Min_cycle;Max_cycle;Signal;HPM_P1;HPM_P2
2021/10/18 00:03:01;;;;;;;6.28;4.55;;;17.50;66.70;;;;;;10536671;28;20379;-47
2021/10/18 00:08:02;;;;;;;5.03;3.92;;;17.50;66.70;;;;;;10536663;28;20426;-51
2021/10/18 00:13:03;;;;;;;6.18;3.92;;;17.50;66.70;;;;;;10522759;28;20512;-46
2021/10/18 00:18:03;;;;;;;5.43;4.15;;;17.60;66.70;;;;;;10525427;28;20086;-46
2021/10/18 00:23:04;;;;;;;6.15;3.97;;;17.50;66.60;;;;;;10530371;28;20069;-48
2021/10/18 00:28:05;;;;;;;6.22;4.65;;;17.60;66.60;;;;;;10519357;28;20231;-46
2021/10/18 00:33:06;;;;;;;4.38;3.30;;;17.50;66.60;;;;;;10534074;28;20081;-48
2021/10/18 00:38:07;;;;;;;5.47;3.95;;;17.50;66.60;;;;;;10528617;28;20033;-46
2021/10/18 00:43:07;;;;;;;5.22;4.03;;;17.60;66.60;;;;;;10533164;28;20020;-46
2021/10/18 00:48:08;;;;;;;5.28;3.70;;;17.50;66.50;;;;;;10520485;28;20077;-47
2021/10/18 00:53:10;;;;;;;7.05;4.65;;;17.50;66.60;;;;;;10538003;28;20102;-48
2021/10/18 00:58:10;;;;;;;5.82;3.75;;;17.50;66.60;;;;;;10534374;28;20034;-47
2021/10/18 01:03:12;;;;;;;5.97;4.00;;;17.50;66.60;;;;;;10523678;28;20119;-48
2021/10/18 01:08:14;;;;;;;5.70;4.82;;;17.50;66.80;;;;;;10519814;28;20028;-47
2021/10/18 01:13:15;;;;;;;5.65;3.90;;;17.50;66.80;;;;;;10523864;28;20481;-47
2021/10/18 01:18:16;;;;;;;4.85;4.35;;;17.40;66.80;;;;;;10540405;28;20036;-46
2021/10/18 01:23:17;;;;;;;5.32;4.20;;;17.40;66.80;;;;;;10540459;28;20077;-46
2021/10/18 01:28:17;;;;;;;5.32;3.58;;;17.40;66.90;;;;;;10530959;28;20536;-47
2021/10/18 01:33:18;;;;;;;5.68;3.65;;;17.50;66.70;;;;;;10523275;28;20036;-47
2021/10/18 01:38:19;;;;;;;5.25;3.80;;;17.50;66.60;;;;;;10538703;28;20624;-47
2021/10/18 01:43:19;;;;;;;5.15;3.47;;;17.50;66.50;;;;;;10513817;28;20032;-47
2021/10/18 01:48:20;;;;;;;5.20;3.78;;;17.60;66.40;;;;;;10544832;28;20047;-47
2021/10/18 01:53:21;;;;;;;7.07;3.70;;;17.60;66.20;;;;;;10542739;28;20097;-47
2021/10/18 01:58:22;;;;;;;5.32;3.72;;;17.60;66.10;;;;;;10539876;28;20062;-47
2021/10/18 02:03:23;;;;;;;4.70;4.05;;;17.60;66.10;;;;;;10531260;28;20481;-47
2021/10/18 02:08:23;;;;;;;4.55;3.47;;;17.60;66.20;;;;;;10533078;28;20067;-47
2021/10/18 02:13:24;;;;;;;6.57;4.57;;;17.60;66.30;;;;;;10529414;28;20116;-47
2021/10/18 02:18:25;;;;;;;5.85;4.10;;;17.50;66.40;;;;;;10539411;28;20293;-46
2021/10/18 02:23:28;;;;;;;4.80;3.75;;;17.50;66.50;;;;;;10539009;28;20044;-47
2021/10/18 02:28:29;;;;;;;4.80;3.92;;;17.50;66.50;;;;;;10526984;28;20040;-46
2021/10/18 02:33:30;;;;;;;5.18;4.43;;;17.50;66.50;;;;;;10529112;28;20048;-48
2021/10/18 02:38:30;;;;;;;4.45;3.80;;;17.40;66.60;;;;;;10540019;28;20066;-48
2021/10/18 02:43:31;;;;;;;6.43;3.90;;;17.50;66.60;;;;;;10525367;28;20137;-46
2021/10/18 02:48:32;;;;;;;4.63;3.80;;;17.50;66.40;;;;;;10527082;28;20016;-48
2021/10/18 02:53:32;;;;;;;5.82;4.20;;;17.60;66.20;;;;;;10537458;28;20066;-48
2021/10/18 02:58:33;;;;;;;7.20;4.10;;;17.60;66.10;;;;;;10531277;28;20031;-46
2021/10/18 03:03:34;;;;;;;5.47;3.75;;;17.60;66.00;;;;;;10527197;28;20142;-47
2021/10/18 03:08:34;;;;;;;4.75;4.28;;;17.60;66.10;;;;;;10541334;28;20032;-46
2021/10/18 03:13:35;;;;;;;5.25;3.90;;;17.60;66.00;;;;;;10525689;28;20456;-47
2021/10/18 03:18:37;;;;;;;5.65;3.58;;;17.50;66.10;;;;;;10538133;28;20081;-46
2021/10/18 03:23:38;;;;;;;6.35;4.85;;;17.50;66.20;;;;;;10526352;28;20520;-47
2021/10/18 03:28:38;;;;;;;5.22;4.13;;;17.50;66.30;;;;;;10528002;28;20111;-46
2021/10/18 03:33:40;;;;;;;4.57;3.33;;;17.50;66.30;;;;;;10526851;28;20066;-46
2021/10/18 03:38:41;;;;;;;4.65;3.97;;;17.50;66.30;;;;;;10539510;28;20392;-47
2021/10/18 03:43:42;;;;;;;5.57;4.20;;;17.50;66.10;;;;;;10514483;28;20112;-46
2021/10/18 03:48:42;;;;;;;5.15;4.53;;;17.60;66.10;;;;;;10534387;28;20042;-46
2021/10/18 03:53:43;;;;;;;5.80;4.03;;;17.60;66.00;;;;;;10527116;28;20391;-48
2021/10/18 03:58:44;;;;;;;6.00;4.40;;;17.60;65.90;;;;;;10537100;28;20043;-48
2021/10/18 04:03:45;;;;;;;5.20;3.92;;;17.60;65.80;;;;;;10532419;28;20540;-48
2021/10/18 04:08:49;;;;;;;5.10;4.15;;;17.60;65.90;;;;;;10534503;28;20032;-46
2021/10/18 04:13:49;;;;;;;4.55;3.47;;;17.60;65.90;;;;;;10516919;28;20113;-46
2021/10/18 04:18:50;;;;;;;5.30;3.80;;;17.50;66.00;;;;;;10525322;28;20129;-46
2021/10/18 04:23:51;;;;;;;4.47;3.55;;;17.50;66.20;;;;;;10536848;28;20039;-46
2021/10/18 04:28:51;;;;;;;5.10;3.97;;;17.50;66.20;;;;;;10526763;28;20170;-46
2021/10/18 04:33:52;;;;;;;5.82;3.95;;;17.50;66.40;;;;;;10500025;28;20109;-48
2021/10/18 04:38:53;;;;;;;5.80;4.13;;;17.60;65.70;;;;;;10500954;28;20068;-48
2021/10/18 04:43:54;;;;;;;5.57;4.30;;;17.80;65.30;;;;;;10497123;28;20481;-47
2021/10/18 04:48:54;;;;;;;5.05;3.72;;;18.00;64.60;;;;;;10524313;28;20059;-52
2021/10/18 04:53:55;;;;;;;5.75;4.13;;;18.30;63.80;;;;;;10518239;28;20063;-46
2021/10/18 04:58:56;;;;;;;5.85;4.05;;;18.70;62.80;;;;;;10536440;28;20034;-45
2021/10/18 05:03:56;;;;;;;5.57;4.30;;;18.90;63.80;;;;;;10517013;28;20039;-47
2021/10/18 05:08:57;;;;;;;5.45;3.80;;;18.90;64.60;;;;;;10525628;28;20115;-48
2021/10/18 05:13:58;;;;;;;10.13;4.22;;;18.80;64.30;;;;;;10515170;28;20060;-48
2021/10/18 05:18:59;;;;;;;6.85;4.30;;;18.80;64.80;;;;;;10501654;28;20032;-46
2021/10/18 05:23:59;;;;;;;6.82;4.07;;;18.80;66.20;;;;;;10498416;28;20422;-47
2021/10/18 05:29:01;;;;;;;8.50;4.88;;;18.70;66.60;;;;;;10499987;28;20070;-45
2021/10/18 05:34:01;;;;;;;9.82;5.07;;;18.70;66.10;;;;;;10496152;28;20033;-45
2021/10/18 05:39:02;;;;;;;9.27;4.90;;;18.60;66.70;;;;;;10497849;28;20040;-47
2021/10/18 05:44:03;;;;;;;9.40;4.25;;;18.40;67.10;;;;;;10497272;28;20035;-45
2021/10/18 05:49:04;;;;;;;13.65;4.97;;;18.30;67.00;;;;;;10486913;28;20035;-49
2021/10/18 05:54:05;;;;;;;7.68;4.13;;;18.30;67.30;;;;;;10496736;28;20043;-48
2021/10/18 05:59:06;;;;;;;11.95;5.40;;;18.40;67.00;;;;;;10504673;28;20043;-46
2021/10/18 06:04:07;;;;;;;11.15;4.97;;;18.30;67.20;;;;;;10512479;28;20053;-47
2021/10/18 06:09:10;;;;;;;8.70;4.50;;;18.30;67.40;;;;;;10498871;28;20055;-49
2021/10/18 06:14:10;;;;;;;13.70;5.30;;;18.20;67.50;;;;;;10488148;28;20036;-46
2021/10/18 06:19:11;;;;;;;10.13;4.45;;;18.20;67.40;;;;;;10499657;28;20402;-48
2021/10/18 06:24:12;;;;;;;12.73;4.93;;;18.20;67.40;;;;;;10501010;28;20108;-45
2021/10/18 06:29:12;;;;;;;14.05;4.40;;;18.30;67.10;;;;;;10502374;28;20449;-47
2021/10/18 06:34:13;;;;;;;12.18;4.35;;;18.40;67.20;;;;;;10501683;28;20504;-45
2021/10/18 06:39:14;;;;;;;7.75;3.95;;;18.40;66.60;;;;;;10500003;28;20052;-45
2021/10/18 06:44:14;;;;;;;9.55;4.07;;;18.50;66.30;;;;;;10498295;28;20047;-48
2021/10/18 06:49:16;;;;;;;8.40;4.05;;;18.50;66.10;;;;;;10508270;28;20397;-46
2021/10/18 06:54:16;;;;;;;10.68;4.68;;;18.50;66.30;;;;;;10497931;28;20032;-46
2021/10/18 06:59:17;;;;;;;10.15;3.60;;;18.40;66.40;;;;;;10516370;28;20485;-46
2021/10/18 07:04:18;;;;;;;8.93;3.50;;;18.30;66.60;;;;;;10500404;28;20032;-52
2021/10/18 07:09:19;;;;;;;6.90;3.58;;;18.30;66.70;;;;;;10500318;28;20016;-46
2021/10/18 07:14:20;;;;;;;7.63;3.53;;;18.40;66.40;;;;;;10497499;28;20056;-45
2021/10/18 07:19:21;;;;;;;7.22;3.83;;;18.40;66.30;;;;;;10498845;28;20033;-46
2021/10/18 07:24:22;;;;;;;7.68;3.75;;;18.50;66.10;;;;;;10499860;28;20460;-46
2021/10/18 07:29:22;;;;;;;8.73;4.05;;;18.40;66.10;;;;;;10498703;28;20024;-46
2021/10/18 07:34:23;;;;;;;6.70;3.50;;;18.40;66.30;;;;;;10499533;28;20100;-46
2021/10/18 07:39:25;;;;;;;6.70;4.13;;;18.30;66.90;;;;;;10498122;28;20040;-46
2021/10/18 07:44:27;;;;;;;12.65;5.20;;;18.20;67.60;;;;;;10499273;28;20032;-49
2021/10/18 07:49:30;;;;;;;9.57;3.97;;;18.30;67.80;;;;;;10509977;28;20613;-46
2021/10/18 07:54:30;;;;;;;5.30;3.38;;;18.30;68.00;;;;;;10497862;28;20032;-52
2021/10/18 07:59:31;;;;;;;10.90;4.38;;;18.30;68.00;;;;;;10498465;28;20028;-47
2021/10/18 08:04:32;;;;;;;5.30;3.45;;;18.30;67.80;;;;;;10496399;28;20024;-47
2021/10/18 08:09:33;;;;;;;8.13;4.00;;;18.30;67.70;;;;;;10478354;28;20688;-47
2021/10/18 08:14:33;;;;;;;8.35;3.58;;;18.30;67.50;;;;;;10494261;28;20047;-48
2021/10/18 08:19:34;;;;;;;7.65;3.80;;;18.30;68.20;;;;;;10496681;28;20445;-47
2021/10/18 08:24:35;;;;;;;8.40;3.22;;;18.30;67.70;;;;;;10496210;28;20123;-46
2021/10/18 08:29:35;;;;;;;5.25;3.17;;;18.20;68.00;;;;;;10497082;28;20141;-46
2021/10/18 08:34:36;;;;;;;8.48;4.13;;;18.20;68.10;;;;;;10496453;28;20035;-48
2021/10/18 08:44:49;;;;;;;6.85;3.40;;;18.10;69.30;;;;;;10495445;28;20028;-45
2021/10/18 08:49:50;;;;;;;7.38;3.42;;;18.10;69.50;;;;;;10508284;28;20035;-45
2021/10/18 08:54:51;;;;;;;6.32;3.75;;;18.10;69.70;;;;;;10472556;28;20472;-46
2021/10/18 08:59:51;;;;;;;5.80;2.97;;;18.10;69.90;;;;;;10495870;28;20449;-45
2021/10/18 09:04:52;;;;;;;9.25;4.03;;;18.00;69.80;;;;;;10495346;28;20039;-45
2021/10/18 09:09:54;;;;;;;9.75;3.05;;;18.00;69.80;;;;;;10495826;28;20134;-46
2021/10/18 09:15:21;;;;;;;12.25;5.20;;;18.00;69.90;;;;;;10494404;28;20141;-45
2021/10/18 09:20:33;;;;;;;15.68;4.32;;;18.10;70.00;;;;;;10495439;28;20040;-50
2021/10/18 09:25:38;;;;;;;22.95;4.75;;;18.10;70.20;;;;;;10495987;28;20033;-47
2021/10/18 09:30:47;;;;;;;38.10;5.82;;;18.10;70.20;;;;;;10495615;28;20106;-47
2021/10/18 09:35:50;;;;;;;45.37;6.10;;;18.00;70.20;;;;;;10491933;28;20033;-51
2021/10/18 09:40:55;;;;;;;18.92;4.97;;;18.10;70.60;;;;;;10503569;28;20560;-45
2021/10/18 10:52:42;;;;;;;12.38;6.07;;;18.00;70.80;;;;;;10512730;28;20044;-46
2021/10/18 10:57:42;;;;;;;10.15;5.35;;;18.10;70.30;;;;;;10501039;28;20036;-48
2021/10/18 11:02:43;;;;;;;13.25;6.55;;;18.10;70.00;;;;;;10474574;28;20063;-47
2021/10/18 11:07:51;;;;;;;14.85;6.15;;;18.10;70.40;;;;;;10500795;28;20107;-48
2021/10/18 11:13:03;;;;;;;13.23;5.72;;;18.10;70.30;;;;;;10495571;28;20028;-49
2021/10/18 11:18:03;;;;;;;15.10;5.30;;;18.10;70.00;;;;;;10493563;28;20484;-46
2021/10/18 11:23:04;;;;;;;15.90;6.57;;;18.10;70.30;;;;;;10499927;28;20016;-50
2021/10/18 11:28:08;;;;;;;18.60;6.15;;;18.10;70.30;;;;;;10499718;28;20040;-52
2021/10/18 11:33:14;;;;;;;13.35;6.13;;;18.00;70.20;;;;;;10499176;28;20103;-48
2021/10/18 11:38:16;;;;;;;15.02;6.88;;;18.10;70.00;;;;;;10499136;28;20121;-48
2021/10/18 11:43:23;;;;;;;11.38;5.43;;;18.00;69.90;;;;;;10497792;28;20071;-45
2021/10/18 11:48:27;;;;;;;12.45;5.20;;;18.00;69.70;;;;;;10501865;28;20024;-50
2021/10/18 11:53:34;;;;;;;10.23;5.47;;;18.00;69.80;;;;;;10506521;28;20029;-45
2021/10/18 11:58:39;;;;;;;11.63;5.65;;;18.00;69.70;;;;;;10497102;28;20074;-48
2021/10/18 12:03:40;;;;;;;13.90;5.70;;;18.00;69.70;;;;;;10498239;28;20035;-47
2021/10/18 12:08:45;;;;;;;11.10;5.63;;;18.00;69.80;;;;;;10498311;28;20384;-46
2021/10/18 12:13:47;;;;;;;14.57;5.80;;;17.90;69.70;;;;;;10498245;28;20060;-44
2021/10/18 12:18:55;;;;;;;10.05;6.03;;;17.90;69.70;;;;;;10497381;28;20496;-51
2021/10/18 12:24:03;;;;;;;9.67;5.40;;;17.90;69.70;;;;;;10497535;28;20434;-46
2021/10/18 12:29:07;;;;;;;10.55;5.05;;;17.90;69.70;;;;;;10497116;28;20055;-50
2021/10/18 12:34:22;;;;;;;8.63;4.65;;;17.90;69.90;;;;;;10494766;28;20086;-50
2021/10/18 12:39:47;;;;;;;8.88;4.13;;;17.90;69.80;;;;;;10494424;28;20048;-50
2021/10/18 12:45:00;;;;;;;9.40;4.47;;;17.80;69.60;;;;;;10495019;28;20078;-48
2021/10/18 12:50:13;;;;;;;12.07;4.07;;;17.80;69.60;;;;;;10505021;28;20025;-48
2021/10/18 12:55:22;;;;;;;7.45;4.60;;;17.80;69.60;;;;;;10495517;28;20553;-48
2021/10/18 13:00:38;;;;;;;7.22;4.68;;;17.80;69.70;;;;;;10494971;28;20073;-52
2021/10/18 13:05:43;;;;;;;7.63;3.92;;;17.80;69.60;;;;;;10496497;28;20028;-46
2021/10/18 13:10:44;;;;;;;7.07;4.43;;;17.80;69.60;;;;;;10495369;28;20104;-47
2021/10/18 13:15:47;;;;;;;8.23;4.22;;;17.80;69.60;;;;;;10484041;28;20115;-51
2021/10/18 13:20:48;;;;;;;5.57;4.32;;;17.80;69.60;;;;;;10495976;28;20116;-46
2021/10/18 13:25:49;;;;;;;7.13;3.35;;;17.80;69.90;;;;;;10496120;28;20052;-47
2021/10/18 13:30:50;;;;;;;9.45;4.20;;;17.80;69.80;;;;;;10496167;28;20115;-48
2021/10/18 13:35:50;;;;;;;5.03;3.80;;;17.80;69.60;;;;;;10494547;28;20111;-47
2021/10/18 13:40:51;;;;;;;5.90;3.70;;;17.80;69.60;;;;;;10495218;28;20044;-48
2021/10/18 13:45:52;;;;;;;6.45;3.35;;;17.90;69.70;;;;;;10495458;28;20035;-50
2021/10/18 13:50:52;;;;;;;7.65;4.35;;;17.80;69.80;;;;;;10497668;28;20044;-47
2021/10/18 13:55:53;;;;;;;7.22;4.40;;;17.80;69.70;;;;;;10494230;28;20029;-46
2021/10/18 14:00:54;;;;;;;6.82;3.80;;;17.90;69.50;;;;;;10495704;28;20028;-45
2021/10/18 14:05:54;;;;;;;7.78;4.00;;;18.00;69.10;;;;;;10477141;28;20032;-46
2021/10/18 14:10:55;;;;;;;8.63;4.55;;;18.00;68.90;;;;;;10495349;28;20056;-47
2021/10/18 14:15:56;;;;;;;21.80;5.68;;;18.00;68.90;;;;;;10495102;28;20108;-48
2021/10/18 14:20:56;;;;;;;17.60;5.25;;;18.00;69.10;;;;;;10496608;28;20106;-50
2021/10/18 14:25:57;;;;;;;24.95;6.53;;;17.90;69.10;;;;;;10502308;28;20051;-50
2021/10/18 14:30:58;;;;;;;22.92;5.72;;;17.90;69.40;;;;;;10501941;28;20453;-49
2021/10/18 14:35:59;;;;;;;26.35;7.13;;;17.90;69.40;;;;;;10501878;28;20025;-46
2021/10/18 14:40:59;;;;;;;20.33;5.78;;;17.90;69.90;;;;;;10500328;28;20129;-46
2021/10/18 14:46:00;;;;;;;23.38;8.05;;;18.00;69.80;;;;;;10501509;28;20115;-46
2021/10/18 14:51:01;;;;;;;27.17;6.90;;;18.00;69.50;;;;;;10500444;28;20058;-48
2021/10/18 14:56:01;;;;;;;27.70;7.10;;;18.00;69.30;;;;;;10501214;28;20075;-46
2021/10/18 15:01:03;;;;;;;16.95;7.22;;;18.00;69.40;;;;;;10501042;28;20107;-49
2021/10/18 15:06:03;;;;;;;21.85;6.32;;;18.00;68.70;;;;;;10500827;28;20393;-51
2021/10/18 15:11:05;;;;;;;16.45;7.15;;;18.10;68.10;;;;;;10493827;28;20063;-50
2021/10/18 15:16:06;;;;;;;10.82;7.05;;;18.20;67.80;;;;;;10496241;28;20021;-51
2021/10/18 15:21:07;;;;;;;11.48;7.88;;;18.20;67.40;;;;;;10500180;28;20437;-48
2021/10/18 15:26:08;;;;;;;20.35;8.15;;;18.30;67.40;;;;;;10498261;28;20123;-48
2021/10/18 15:31:09;;;;;;;15.40;6.85;;;18.40;67.30;;;;;;10499967;28;20354;-46
2021/10/18 15:36:10;;;;;;;18.75;7.88;;;18.50;66.80;;;;;;10498513;28;20107;-47
2021/10/18 15:41:10;;;;;;;18.90;7.35;;;18.40;66.40;;;;;;10498768;28;20152;-46
2021/10/18 15:46:11;;;;;;;20.48;8.13;;;18.50;66.20;;;;;;10490051;28;20052;-48
2021/10/18 15:51:12;;;;;;;22.23;8.43;;;18.50;66.30;;;;;;10494578;28;20021;-46
2021/10/18 15:56:15;;;;;;;26.85;9.30;;;18.50;66.80;;;;;;10496587;28;20473;-49
2021/10/18 16:01:16;;;;;;;27.52;8.55;;;18.60;68.10;;;;;;10508688;28;20409;-45
2021/10/18 16:06:16;;;;;;;16.52;7.80;;;18.80;69.30;;;;;;10497807;28;20066;-49
2021/10/18 16:11:17;;;;;;;17.75;7.50;;;18.80;69.40;;;;;;10511260;28;20486;-47
2021/10/18 16:16:18;;;;;;;21.75;7.65;;;18.80;69.40;;;;;;10496149;28;20417;-48
2021/10/18 16:21:19;;;;;;;25.08;8.45;;;18.70;69.50;;;;;;10505459;28;20025;-50
2021/10/18 16:26:20;;;;;;;23.10;7.50;;;18.70;69.30;;;;;;10511090;28;20492;-46
2021/10/18 16:31:21;;;;;;;17.10;7.30;;;18.60;69.70;;;;;;10496987;28;20031;-52
2021/10/18 16:36:22;;;;;;;12.10;6.03;;;18.60;69.90;;;;;;10500160;28;20361;-46
2021/10/18 16:41:23;;;;;;;20.30;7.90;;;18.60;70.00;;;;;;10503245;28;20477;-46
2021/10/18 16:46:25;;;;;;;15.13;7.15;;;18.50;69.90;;;;;;10493554;28;20048;-45
2021/10/18 16:51:25;;;;;;;18.40;7.07;;;18.50;70.00;;;;;;10498573;28;20123;-52
2021/10/18 16:56:26;;;;;;;16.13;6.68;;;18.50;70.10;;;;;;10508422;28;20079;-47
2021/10/18 17:01:27;;;;;;;16.20;5.63;;;18.40;69.90;;;;;;10497189;28;20040;-49
2021/10/18 17:06:28;;;;;;;9.68;6.20;;;18.30;70.10;;;;;;10494600;28;20441;-50
2021/10/18 17:11:29;;;;;;;10.75;5.65;;;18.30;70.10;;;;;;10496723;28;20123;-46
2021/10/18 17:16:33;;;;;;;11.15;6.43;;;18.20;70.10;;;;;;10495832;28;20043;-51
2021/10/18 17:21:35;;;;;;;10.65;5.80;;;18.20;70.10;;;;;;10497548;28;20035;-50
2021/10/18 17:26:36;;;;;;;14.13;5.65;;;18.20;70.40;;;;;;10494932;28;20146;-49
2021/10/18 17:31:37;;;;;;;10.45;5.40;;;18.20;70.20;;;;;;10498512;28;20546;-50
2021/10/18 17:36:38;;;;;;;15.20;5.90;;;18.20;70.40;;;;;;10500181;28;20036;-49
2021/10/18 17:41:39;;;;;;;9.68;5.35;;;18.10;70.40;;;;;;10494919;28;20044;-47
2021/10/18 17:46:40;;;;;;;9.20;5.03;;;18.10;70.50;;;;;;10479725;28;20048;-51
2021/10/18 17:51:42;;;;;;;9.30;5.63;;;18.10;70.60;;;;;;10495761;28;20036;-53
2021/10/18 17:56:43;;;;;;;10.63;5.28;;;18.10;70.60;;;;;;10489091;28;20035;-51
2021/10/18 18:01:45;;;;;;;7.95;5.13;;;18.00;70.10;;;;;;10502978;28;20025;-52
2021/10/18 18:06:46;;;;;;;8.27;4.65;;;18.00;70.30;;;;;;10504606;28;20032;-50
2021/10/18 18:11:47;;;;;;;6.93;4.70;;;17.90;70.40;;;;;;10513212;28;20028;-49
2021/10/18 18:16:48;;;;;;;7.78;5.10;;;17.90;70.50;;;;;;10502421;28;20056;-50
2021/10/18 18:21:49;;;;;;;8.02;4.78;;;17.90;70.50;;;;;;10504619;28;20043;-52
2021/10/18 18:26:50;;;;;;;9.60;5.45;;;17.90;70.30;;;;;;10503219;28;20532;-51
2021/10/18 18:31:53;;;;;;;8.45;5.15;;;17.90;70.10;;;;;;10512901;28;20124;-46
2021/10/18 18:36:54;;;;;;;7.88;4.95;;;18.00;70.00;;;;;;10496057;28;20490;-49
2021/10/18 18:41:54;;;;;;;8.80;4.78;;;17.90;69.90;;;;;;10499982;28;20162;-46
2021/10/18 18:46:55;;;;;;;10.07;4.60;;;18.00;70.00;;;;;;10501852;28;20115;-47
2021/10/18 18:51:56;;;;;;;9.15;5.00;;;18.10;70.00;;;;;;10503421;28;20055;-47
2021/10/18 18:56:57;;;;;;;9.40;4.80;;;18.20;70.20;;;;;;10502795;28;20036;-48
2021/10/18 19:01:58;;;;;;;7.80;5.18;;;18.20;70.10;;;;;;10505011;28;20048;-48
2021/10/18 19:06:58;;;;;;;10.65;5.28;;;18.30;70.70;;;;;;10500092;28;20520;-46
2021/10/18 19:12:00;;;;;;;7.80;5.03;;;18.40;70.50;;;;;;10501113;28;20175;-47
2021/10/18 19:17:00;;;;;;;7.72;5.05;;;18.30;70.50;;;;;;10502550;28;20029;-50
2021/10/18 19:22:01;;;;;;;6.72;4.78;;;18.30;70.60;;;;;;10501460;28;20060;-48
2021/10/18 19:27:02;;;;;;;9.30;4.75;;;18.30;70.90;;;;;;10499676;28;20469;-47
2021/10/18 19:32:04;;;;;;;6.40;4.90;;;18.30;70.90;;;;;;10502137;28;20037;-48
2021/10/18 19:37:07;;;;;;;7.53;5.13;;;18.20;70.90;;;;;;10497894;28;20032;-45
2021/10/18 19:42:09;;;;;;;7.32;4.75;;;18.10;71.00;;;;;;10498493;28;20044;-45
2021/10/18 19:47:10;;;;;;;5.57;3.97;;;18.10;71.10;;;;;;10498468;28;20456;-45
2021/10/18 19:52:15;;;;;;;6.70;4.20;;;18.00;71.20;;;;;;10500610;28;20493;-46
2021/10/18 19:57:15;;;;;;;7.22;4.72;;;18.00;71.30;;;;;;10496170;28;20476;-45
2021/10/18 20:02:16;;;;;;;5.90;4.28;;;17.90;71.20;;;;;;10498077;28;20033;-46
2021/10/18 20:07:17;;;;;;;4.88;4.07;;;17.90;71.30;;;;;;10497008;28;20111;-47
2021/10/18 20:12:17;;;;;;;5.95;4.28;;;17.90;71.30;;;;;;10496937;28;20433;-45
2021/10/18 20:17:18;;;;;;;5.50;4.38;;;17.80;71.30;;;;;;10496014;28;20043;-46
2021/10/18 20:22:19;;;;;;;4.38;3.42;;;17.90;71.40;;;;;;10495939;28;20111;-45
2021/10/18 20:27:21;;;;;;;10.65;4.78;;;17.80;71.40;;;;;;10496094;28;20120;-46
2021/10/18 20:32:22;;;;;;;5.90;4.57;;;17.80;71.40;;;;;;10497977;28;20051;-46
2021/10/18 20:37:23;;;;;;;4.75;4.25;;;17.80;71.40;;;;;;10497582;28;20056;-46
2021/10/18 20:42:24;;;;;;;6.88;4.93;;;17.80;71.40;;;;;;10497441;28;20050;-45
2021/10/18 20:47:24;;;;;;;5.32;3.60;;;17.80;71.50;;;;;;10497404;28;20054;-44
2021/10/18 20:52:25;;;;;;;5.65;4.20;;;17.70;71.40;;;;;;10507466;28;20368;-45
2021/10/18 20:57:26;;;;;;;5.63;4.18;;;17.70;71.40;;;;;;10497320;28;20032;-45
2021/10/18 21:02:26;;;;;;;5.78;3.88;;;17.70;71.40;;;;;;10497175;28;20055;-46
2021/10/18 21:07:28;;;;;;;5.28;4.28;;;17.70;71.40;;;;;;10495855;28;20071;-45
2021/10/18 21:12:30;;;;;;;7.28;4.30;;;17.70;71.30;;;;;;10496573;28;20028;-46
2021/10/18 21:17:31;;;;;;;5.97;4.22;;;17.70;71.30;;;;;;10504996;28;20035;-45
2021/10/18 21:22:33;;;;;;;5.35;4.05;;;17.60;71.20;;;;;;10496799;28;20033;-46
2021/10/18 21:27:34;;;;;;;9.45;3.72;;;17.60;71.20;;;;;;10496619;28;20110;-45
2021/10/18 21:32:35;;;;;;;5.25;3.70;;;17.60;71.20;;;;;;10499771;28;20056;-45
2021/10/18 21:37:36;;;;;;;4.47;3.58;;;17.60;71.20;;;;;;10504694;28;20059;-47
2021/10/18 21:42:37;;;;;;;5.35;3.75;;;17.60;71.70;;;;;;10520059;28;20094;-46
2021/10/18 21:47:37;;;;;;;6.88;3.92;;;17.60;71.20;;;;;;10502847;28;20035;-47
2021/10/18 21:52:38;;;;;;;6.03;3.95;;;17.60;71.20;;;;;;10515970;28;20040;-45
2021/10/18 21:57:40;;;;;;;4.72;4.00;;;17.50;71.10;;;;;;10519516;28;20495;-45
2021/10/18 22:02:42;;;;;;;4.70;3.35;;;17.60;71.20;;;;;;10499274;28;20066;-45
2021/10/18 22:07:42;;;;;;;6.07;3.63;;;17.60;71.20;;;;;;10503809;28;20016;-45
2021/10/18 22:12:44;;;;;;;4.82;3.58;;;17.50;71.30;;;;;;10503169;28;20427;-45
2021/10/18 22:17:44;;;;;;;4.40;3.20;;;17.50;71.30;;;;;;10503597;28;20067;-46
2021/10/18 22:22:46;;;;;;;4.03;3.15;;;17.50;71.30;;;;;;10501611;28;20036;-48
2021/10/18 22:27:49;;;;;;;4.63;3.83;;;17.50;71.20;;;;;;10501462;28;20024;-45
2021/10/18 22:32:50;;;;;;;4.55;3.25;;;17.50;71.20;;;;;;10502631;28;20037;-45
2021/10/18 22:37:51;;;;;;;4.85;3.53;;;17.50;71.20;;;;;;10502107;28;20412;-45
2021/10/18 22:42:51;;;;;;;4.82;3.40;;;17.50;71.20;;;;;;10500497;28;20036;-46
2021/10/18 22:47:52;;;;;;;7.45;3.72;;;17.50;71.20;;;;;;10501789;28;20107;-45
2021/10/18 22:52:53;;;;;;;5.25;3.67;;;17.50;71.20;;;;;;10513431;28;20454;-45
2021/10/18 22:57:53;;;;;;;4.55;3.92;;;17.50;71.20;;;;;;10501756;28;20784;-45
2021/10/18 23:02:54;;;;;;;4.63;3.50;;;17.50;71.20;;;;;;10501579;28;20335;-46
2021/10/18 23:07:55;;;;;;;4.28;3.78;;;17.50;71.10;;;;;;10501222;28;20429;-45
2021/10/18 23:12:56;;;;;;;6.35;3.20;;;17.40;71.10;;;;;;10500917;28;20187;-47
2021/10/18 23:17:57;;;;;;;5.30;3.80;;;17.40;71.10;;;;;;10500900;28;20447;-47
2021/10/18 23:22:57;;;;;;;5.15;2.97;;;17.50;71.10;;;;;;10500479;28;20044;-46
2021/10/18 23:27:58;;;;;;;4.80;3.58;;;17.50;71.10;;;;;;10500258;28;20032;-46
2021/10/18 23:32:58;;;;;;;5.63;3.55;;;17.40;71.00;;;;;;10500035;28;20459;-45
2021/10/18 23:37:59;;;;;;;4.57;3.35;;;17.40;71.10;;;;;;10498958;28;20040;-45
2021/10/18 23:43:00;;;;;;;4.15;3.20;;;17.40;71.10;;;;;;10499187;28;20488;-47
2021/10/18 23:48:01;;;;;;;4.75;3.47;;;17.40;71.20;;;;;;10499756;28;20029;-45
2021/10/18 23:53:04;;;;;;;3.55;2.88;;;17.40;71.20;;;;;;10509740;28;20032;-45
2021/10/18 23:58:04;;;;;;;4.60;3.10;;;17.40;71.20;;;;;;10499167;28;20037;-45
